Time;durP1;ratioP1;P1;durP2;ratioP2;P2;SDS_P1;SDS_P2;PMS_P1;PMS_P2;Temp;Humidity;BMP_temperature;BMP_pressure;BME280_temperature;BME280_humidity;BME280_pressure;Samples;Min_cycle;Max_cycle;Signal;HPM_P1;HPM_P2
2023/06/12 00:01:39;;;;;;;156.43;149.63;;;;;;;32.80;23.78;101372.75;4993785;28;20122;-70
2023/06/12 00:04:05;;;;;;;;;;;;;;;32.76;24.29;101383.91;4993861;28;20522;-71
2023/06/12 00:06:31;;;;;;;160.43;153.35;;;;;;;32.72;24.04;101371.84;4994063;28;20013;-70
2023/06/12 00:08:57;;;;;;;153.90;146.38;;;;;;;32.68;24.25;101376.56;4993265;28;20034;-71
2023/06/12 00:11:22;;;;;;;155.13;148.40;;;;;;;32.64;23.90;101370.16;4993740;28;20034;-70
2023/06/12 00:13:48;;;;;;;166.77;159.23;;;;;;;32.60;23.96;101372.06;4993482;28;20030;-70
2023/06/12 00:16:15;;;;;;;156.20;149.40;;;;;;;32.57;23.97;101377.63;4993256;28;20037;-70
2023/06/12 00:18:41;;;;;;;157.60;150.75;;;;;;;32.53;23.62;101374.78;4993793;28;20026;-71
2023/06/12 00:21:08;;;;;;;163.38;156.18;;;;;;;32.50;23.72;101372.72;4993369;28;20122;-71
2023/06/12 00:23:35;;;;;;;154.63;147.38;;;;;;;32.46;24.14;101374.66;4993446;28;20065;-70
2023/06/12 00:26:01;;;;;;;164.55;157.45;;;;;;;32.42;24.07;101371.81;4992919;28;20153;-70
2023/06/12 00:28:26;;;;;;;160.00;152.25;;;;;;;32.40;24.13;101367.78;4999750;28;20486;-70
2023/06/12 00:30:51;;;;;;;155.00;147.98;;;;;;;32.36;24.06;101372.50;5027587;28;20033;-70
2023/06/12 00:33:17;;;;;;;156.32;149.32;;;;;;;32.32;24.32;101370.47;5011970;28;20042;-70
2023/06/12 00:35:43;;;;;;;152.25;145.20;;;;;;;32.28;23.86;101360.41;5012494;28;20089;-70
2023/06/12 00:38:08;;;;;;;150.13;143.38;;;;;;;32.24;24.28;101363.16;5011839;28;20056;-70
2023/06/12 00:40:34;;;;;;;161.35;153.27;;;;;;;32.21;24.34;101369.50;5011986;28;20041;-70
2023/06/12 00:42:59;;;;;;;154.57;145.95;;;;;;;32.18;24.22;101364.66;5011980;28;20494;-70
2023/06/12 00:45:26;;;;;;;161.13;152.02;;;;;;;32.15;24.16;101357.00;5012456;28;20458;-70
2023/06/12 00:47:53;;;;;;;155.45;146.20;;;;;;;32.11;24.54;101361.75;5011353;28;20048;-70
2023/06/12 00:50:20;;;;;;;155.27;146.38;;;;;;;32.06;24.53;101360.09;5027056;28;20042;-70
2023/06/12 00:52:48;;;;;;;159.85;150.02;;;;;;;32.03;24.21;101369.22;5010699;28;20041;-70
2023/06/12 00:55:14;;;;;;;156.95;146.55;;;;;;;32.00;24.14;101369.94;5011049;28;20121;-70
2023/06/12 00:57:44;;;;;;;155.45;145.90;;;;;;;31.96;24.12;101365.50;5012047;28;20034;-70
2023/06/12 01:00:11;;;;;;;154.40;146.20;;;;;;;31.92;24.79;101369.00;5011919;28;20471;-70
2023/06/12 01:02:42;;;;;;;154.30;145.82;;;;;;;31.89;24.53;101368.94;5011812;28;20033;-70
2023/06/12 01:05:10;;;;;;;153.20;145.27;;;;;;;31.85;24.54;101368.91;5010984;28;20360;-70
2023/06/12 01:07:40;;;;;;;154.55;147.10;;;;;;;31.82;24.55;101368.81;5011965;28;20109;-70
2023/06/12 01:10:12;;;;;;;153.07;145.73;;;;;;;31.78;24.60;101370.78;5011363;28;20556;-71
2023/06/12 01:12:39;;;;;;;151.45;144.45;;;;;;;31.74;24.63;101365.09;5011288;28;20104;-70
2023/06/12 01:15:05;;;;;;;148.50;141.70;;;;;;;31.71;24.68;101373.44;5011499;28;20121;-70
2023/06/12 01:17:30;;;;;;;154.45;147.38;;;;;;;31.67;24.72;101371.38;5011767;28;20394;-70
2023/06/12 01:20:11;;;;;;;149.55;142.95;;;;;;;31.63;24.68;101369.72;5010713;28;20038;-70
2023/06/12 01:23:05;;;;;;;149.82;143.18;;;;;;;31.59;24.88;101368.84;5003679;28;20046;-70
2023/06/12 01:26:03;;;;;;;145.93;139.05;;;;;;;31.55;24.90;101367.94;5011628;28;20033;-70
2023/06/12 01:28:37;;;;;;;145.15;138.63;;;;;;;31.50;24.86;101366.28;4992737;28;20045;-70
2023/06/12 01:31:26;;;;;;;149.35;142.80;;;;;;;31.45;24.67;101361.81;5007754;28;20180;-69
2023/06/12 01:34:02;;;;;;;148.02;141.45;;;;;;;31.41;24.94;101371.31;4992711;28;20113;-70
2023/06/12 01:36:32;;;;;;;149.90;143.07;;;;;;;31.39;25.02;101370.84;4991528;28;20406;-70
2023/06/12 01:39:00;;;;;;;149.00;142.20;;;;;;;31.33;24.98;101366.75;4992403;28;20124;-69
2023/06/12 01:41:28;;;;;;;148.15;141.43;;;;;;;31.32;25.07;101365.91;4991588;28;20432;-70
2023/06/12 01:43:53;;;;;;;144.52;137.77;;;;;;;31.28;24.69;101370.63;4992299;28;20061;-70
2023/06/12 01:46:19;;;;;;;145.85;139.23;;;;;;;31.24;25.08;101378.13;4991964;28;20066;-70
2023/06/12 01:48:44;;;;;;;149.27;142.70;;;;;;;31.20;25.29;101364.09;4992172;28;20049;-70
2023/06/12 01:51:09;;;;;;;145.57;139.02;;;;;;;31.17;25.15;101366.81;4992023;28;20031;-70
2023/06/12 01:53:35;;;;;;;147.52;140.43;;;;;;;31.15;25.03;101371.97;4992397;28;20142;-70
2023/06/12 01:56:00;;;;;;;143.27;136.43;;;;;;;31.11;25.16;101371.09;5007494;28;20030;-70
2023/06/12 01:58:27;;;;;;;145.63;139.02;;;;;;;31.07;25.00;101373.00;4991738;28;20041;-70
2023/06/12 02:00:53;;;;;;;148.23;141.23;;;;;;;31.04;25.09;101375.34;4992209;28;20035;-70
2023/06/12 02:03:22;;;;;;;145.45;138.57;;;;;;;31.01;25.08;101370.50;4991413;28;20100;-70
2023/06/12 02:05:48;;;;;;;144.82;137.95;;;;;;;30.97;25.08;101375.22;4992254;28;20034;-71
2023/06/12 02:08:14;;;;;;;142.30;135.90;;;;;;;30.94;25.25;101372.34;4997275;28;20367;-71
2023/06/12 02:10:39;;;;;;;140.68;134.18;;;;;;;30.90;25.33;101363.91;5011742;28;20068;-71
2023/06/12 02:13:04;;;;;;;138.40;132.18;;;;;;;30.87;25.49;101370.22;5011476;28;20034;-70
2023/06/12 02:15:31;;;;;;;142.75;136.13;;;;;;;30.85;25.33;101360.59;5011075;28;20105;-70
2023/06/12 02:17:56;;;;;;;137.73;131.65;;;;;;;30.81;25.40;101361.28;5009700;28;20091;-70
2023/06/12 02:20:22;;;;;;;139.23;132.93;;;;;;;30.77;25.25;101365.16;5010898;28;20030;-69
2023/06/12 02:22:47;;;;;;;140.85;134.40;;;;;;;30.74;25.42;101365.91;5011751;28;20470;-70
2023/06/12 02:25:13;;;;;;;141.70;135.40;;;;;;;30.70;25.42;101368.63;5010765;28;20375;-70
2023/06/12 02:27:38;;;;;;;136.98;130.63;;;;;;;30.67;25.30;101365.75;5011186;28;20038;-70
2023/06/12 02:30:04;;;;;;;140.13;133.68;;;;;;;30.63;25.39;101363.69;5011202;28;20436;-70
2023/06/12 02:32:33;;;;;;;142.25;135.98;;;;;;;30.60;25.54;101364.44;5012669;28;20088;-70
2023/06/12 02:35:00;;;;;;;137.70;131.43;;;;;;;30.58;25.43;101365.97;5014481;28;20440;-70
2023/06/12 02:37:27;;;;;;;140.43;134.13;;;;;;;30.54;25.52;101363.13;5014518;28;20026;-70
2023/06/12 02:39:53;;;;;;;144.18;137.55;;;;;;;30.51;25.38;101369.38;5014307;28;20378;-70
2023/06/12 02:42:18;;;;;;;139.25;132.90;;;;;;;30.48;25.50;101363.75;5013644;28;20474;-70
2023/06/12 02:44:44;;;;;;;137.65;131.45;;;;;;;30.45;25.38;101373.66;5013864;28;20120;-71
2023/06/12 02:47:10;;;;;;;138.95;132.75;;;;;;;30.41;25.52;101369.97;5013250;28;20220;-72
2023/06/12 02:49:37;;;;;;;138.75;132.48;;;;;;;30.38;25.87;101376.25;5014391;28;20061;-70
2023/06/12 02:52:03;;;;;;;135.80;129.48;;;;;;;30.34;25.67;101372.56;5014651;28;20036;-70
2023/06/12 02:54:28;;;;;;;140.45;133.93;;;;;;;30.31;25.61;101370.53;5013734;28;20113;-70
2023/06/12 02:56:54;;;;;;;142.50;135.95;;;;;;;30.27;25.63;101378.81;5014424;28;20037;-70
2023/06/12 02:59:23;;;;;;;138.63;131.57;;;;;;;30.24;25.58;101364.75;5029001;28;20060;-70
2023/06/12 03:01:49;;;;;;;142.38;135.98;;;;;;;30.20;25.44;101371.06;5014145;28;20065;-70
2023/06/12 03:04:20;;;;;;;137.23;130.80;;;;;;;30.17;25.57;101373.75;5012909;28;20073;-70
2023/06/12 03:06:47;;;;;;;137.02;130.82;;;;;;;30.13;25.76;101373.66;5014207;28;20041;-70
2023/06/12 03:09:15;;;;;;;137.73;131.43;;;;;;;30.10;25.54;101370.81;5013607;28;20026;-70
2023/06/12 03:11:42;;;;;;;140.25;133.82;;;;;;;30.07;25.78;101371.53;5013172;28;20029;-70
2023/06/12 03:14:08;;;;;;;139.73;133.45;;;;;;;30.03;25.79;101373.41;5013911;28;20116;-70
2023/06/12 03:16:34;;;;;;;138.65;132.30;;;;;;;30.00;25.85;101368.56;5013397;28;20113;-70
2023/06/12 03:18:59;;;;;;;135.82;129.52;;;;;;;29.96;26.23;101374.03;5014121;28;20088;-70
2023/06/12 03:21:25;;;;;;;138.27;132.10;;;;;;;29.93;25.94;101377.53;5009032;28;20022;-70
2023/06/12 03:23:51;;;;;;;135.85;129.60;;;;;;;29.88;25.89;101373.03;4994652;28;20481;-70
2023/06/12 03:26:17;;;;;;;134.98;128.80;;;;;;;29.86;25.83;101375.41;4994364;28;20073;-70
2023/06/12 03:28:44;;;;;;;134.27;128.02;;;;;;;29.83;26.05;101381.66;4994610;28;20026;-70
2023/06/12 03:31:10;;;;;;;135.23;128.93;;;;;;;29.79;26.43;101372.44;5014462;28;20065;-70
2023/06/12 03:33:35;;;;;;;136.90;130.80;;;;;;;29.76;26.16;101379.53;5012971;28;20450;-70
2023/06/12 03:36:01;;;;;;;131.82;125.93;;;;;;;29.73;26.20;101385.78;5013050;28;20033;-70
2023/06/12 03:38:26;;;;;;;132.15;126.15;;;;;;;29.69;26.27;101382.13;5012824;28;20113;-70
2023/06/12 03:40:51;;;;;;;132.25;126.20;;;;;;;29.66;26.07;101382.00;5012962;28;20694;-71
2023/06/12 03:43:17;;;;;;;130.43;124.28;;;;;;;29.63;26.12;101385.50;5013072;28;20113;-70
2023/06/12 03:45:42;;;;;;;132.68;126.63;;;;;;;29.60;26.53;101386.22;5012319;28;20557;-70
2023/06/12 03:48:08;;;;;;;131.95;126.00;;;;;;;29.56;26.25;101394.47;5012884;28;20030;-71
2023/06/12 03:50:33;;;;;;;134.05;127.43;;;;;;;29.54;26.57;101396.81;5013059;28;20033;-71
2023/06/12 03:52:59;;;;;;;129.98;123.88;;;;;;;29.50;26.14;101393.09;5013517;28;20026;-70
2023/06/12 03:55:24;;;;;;;129.45;123.55;;;;;;;29.47;26.45;101388.25;5012658;28;20034;-70
2023/06/12 03:57:50;;;;;;;128.90;123.07;;;;;;;29.44;26.77;101397.31;5013196;28;20084;-70
2023/06/12 04:00:16;;;;;;;135.35;128.07;;;;;;;29.40;26.38;101394.41;5013174;28;20069;-70
2023/06/12 04:02:42;;;;;;;129.75;123.93;;;;;;;29.36;26.60;101387.97;5012528;28;20064;-70
2023/06/12 04:05:08;;;;;;;128.45;122.45;;;;;;;29.34;26.73;101407.00;5012268;28;20077;-70
2023/06/12 04:07:37;;;;;;;130.18;123.88;;;;;;;29.30;26.60;101400.50;5012444;28;20456;-70
2023/06/12 04:10:04;;;;;;;127.78;121.97;;;;;;;29.27;26.62;101404.81;5013250;28;20485;-70
2023/06/12 04:12:30;;;;;;;128.05;121.95;;;;;;;29.24;26.62;101416.66;5012390;28;20030;-71
2023/06/12 04:14:55;;;;;;;134.30;127.90;;;;;;;29.22;26.68;101410.63;5012796;28;20036;-70
2023/06/12 04:17:21;;;;;;;130.45;124.28;;;;;;;29.18;26.82;101409.72;5012205;28;20113;-70
2023/06/12 04:19:48;;;;;;;132.30;125.93;;;;;;;29.16;26.76;101409.28;5013548;28;20573;-69
2023/06/12 04:22:15;;;;;;;130.20;124.22;;;;;;;29.14;26.92;101413.56;5012473;28;20034;-69
2023/06/12 04:24:42;;;;;;;130.77;124.57;;;;;;;29.09;27.20;101409.88;5011496;28;20041;-70
2023/06/12 04:27:09;;;;;;;133.02;126.93;;;;;;;29.07;26.75;101405.81;5012755;28;20092;-69
2023/06/12 04:29:37;;;;;;;134.50;127.87;;;;;;;29.03;26.94;101410.41;5012116;28;20041;-70
2023/06/12 04:32:05;;;;;;;;;;;;;;;29.00;26.84;101403.59;5012464;28;20053;-71
2023/06/12 04:34:30;;;;;;;123.68;117.97;;;;;;;28.96;26.95;101402.69;5027157;28;19960;-70
2023/06/12 04:36:56;;;;;;;132.52;126.53;;;;;;;28.93;27.18;101406.19;5012527;28;20453;-71
2023/06/12 04:39:22;;;;;;;128.52;122.57;;;;;;;28.89;26.91;101405.25;5026185;28;20050;-71
2023/06/12 04:41:51;;;;;;;125.70;120.03;;;;;;;28.87;26.91;101404.78;5011320;28;20030;-70
2023/06/12 04:44:17;;;;;;;129.93;123.28;;;;;;;28.84;27.15;101405.50;5012214;28;20042;-71
2023/06/12 04:46:43;;;;;;;127.82;121.20;;;;;;;28.81;27.06;101398.69;5011079;28;20037;-70
2023/06/12 04:49:08;;;;;;;130.38;124.28;;;;;;;28.78;27.17;101404.94;5012032;28;20034;-70
2023/06/12 04:51:35;;;;;;;128.25;122.40;;;;;;;28.76;27.10;101403.69;5011856;28;20096;-71
2023/06/12 04:54:01;;;;;;;131.00;125.00;;;;;;;28.73;27.23;101409.91;5001800;28;20033;-71
2023/06/12 04:56:27;;;;;;;126.38;120.05;;;;;;;28.70;27.08;101405.88;4991885;28;20121;-70
2023/06/12 04:58:53;;;;;;;125.15;119.45;;;;;;;28.67;27.04;101412.13;4992489;28;20108;-70
2023/06/12 05:01:21;;;;;;;128.00;121.20;;;;;;;28.65;27.20;101420.84;4992524;28;20443;-70
2023/06/12 05:03:49;;;;;;;126.88;120.68;;;;;;;28.62;27.62;101418.72;4992789;28;20433;-70
2023/06/12 05:06:14;;;;;;;125.00;118.83;;;;;;;28.60;27.30;101423.03;4992767;28;20179;-70
2023/06/12 05:08:40;;;;;;;124.45;117.80;;;;;;;28.57;27.74;101426.50;4992444;28;20038;-70
2023/06/12 05:11:05;;;;;;;121.25;115.60;;;;;;;28.56;27.52;101427.69;4992557;28;20030;-70
2023/06/12 05:13:30;;;;;;;123.38;117.38;;;;;;;28.53;27.48;101428.38;4991601;28;20031;-71
2023/06/12 05:15:56;;;;;;;122.65;116.20;;;;;;;28.50;27.73;101431.84;4992549;28;20117;-71
2023/06/12 05:18:21;;;;;;;120.85;114.50;;;;;;;28.48;27.35;101423.88;4992660;28;20370;-71
2023/06/12 05:20:47;;;;;;;119.47;113.90;;;;;;;28.45;28.00;101428.16;4992269;28;20031;-71
2023/06/12 05:23:12;;;;;;;121.22;115.60;;;;;;;28.43;28.06;101422.09;4992343;28;20058;-70
2023/06/12 05:25:37;;;;;;;124.82;118.82;;;;;;;28.41;27.84;101421.63;5007405;28;20042;-71
2023/06/12 05:28:06;;;;;;;121.07;115.20;;;;;;;28.40;28.08;101433.91;4991253;28;20074;-71
2023/06/12 05:30:31;;;;;;;124.95;118.90;;;;;;;28.38;28.14;101424.31;4991962;28;20494;-71
2023/06/12 05:33:09;;;;;;;122.18;116.50;;;;;;;28.37;28.01;101428.22;4992198;28;20043;-71
2023/06/12 05:35:35;;;;;;;121.85;114.93;;;;;;;28.34;28.30;101420.59;4991984;28;20040;-71
2023/06/12 05:38:00;;;;;;;121.47;115.75;;;;;;;28.31;28.00;101418.50;5007524;28;20030;-71
2023/06/12 05:40:26;;;;;;;118.50;112.97;;;;;;;28.29;28.32;101420.81;4991341;28;20050;-71
2023/06/12 05:42:51;;;;;;;121.65;115.85;;;;;;;28.29;28.30;101423.59;4992370;28;20038;-71
2023/06/12 05:45:17;;;;;;;120.85;115.05;;;;;;;28.26;28.35;101425.09;4992331;28;20053;-70
2023/06/12 05:47:42;;;;;;;125.35;119.00;;;;;;;28.26;28.24;101422.31;4990311;28;20043;-71
2023/06/12 05:50:08;;;;;;;121.10;115.20;;;;;;;28.25;28.32;101417.94;4974963;28;20042;-71
2023/06/12 05:52:33;;;;;;;124.93;118.78;;;;;;;28.25;28.67;101417.94;4991664;28;20070;-71
2023/06/12 05:54:59;;;;;;;119.90;113.47;;;;;;;28.24;28.62;101413.53;4992131;28;20057;-71
2023/06/12 05:57:24;;;;;;;124.95;119.00;;;;;;;28.22;28.56;101416.66;4991951;28;20471;-72
2023/06/12 05:59:50;;;;;;;120.30;114.50;;;;;;;28.22;28.72;101418.59;4991984;28;20034;-71
2023/06/12 06:02:16;;;;;;;121.85;116.10;;;;;;;28.21;28.73;101417.81;4992167;28;20121;-71
2023/06/12 06:04:42;;;;;;;122.75;116.75;;;;;;;28.22;28.74;101425.00;4991302;28;20511;-71
2023/06/12 06:07:08;;;;;;;123.63;117.13;;;;;;;28.21;28.74;101417.81;4994584;28;20070;-71
2023/06/12 06:09:34;;;;;;;124.78;118.28;;;;;;;28.21;28.86;101417.81;4995326;28;20430;-70
2023/06/12 06:11:59;;;;;;;123.22;116.43;;;;;;;28.21;28.61;101420.59;4996089;28;20038;-72
2023/06/12 06:14:25;;;;;;;121.65;115.45;;;;;;;28.22;28.36;101421.38;4995516;28;20034;-71
2023/06/12 06:16:50;;;;;;;123.63;117.72;;;;;;;28.22;28.54;101426.94;5009215;28;20034;-71
2023/06/12 06:19:16;;;;;;;123.63;117.60;;;;;;;28.23;28.65;101423.84;5013954;28;20092;-71
2023/06/12 06:21:41;;;;;;;126.25;119.93;;;;;;;28.24;28.67;101427.41;5014477;28;20113;-70
2023/06/12 06:24:07;;;;;;;121.70;115.93;;;;;;;28.26;28.59;101425.91;5013630;28;20042;-70
2023/06/12 06:26:32;;;;;;;121.38;115.43;;;;;;;28.25;28.44;101427.06;5013807;28;20034;-71
2023/06/12 06:28:58;;;;;;;121.10;115.10;;;;;;;28.27;28.67;101426.72;5029992;28;20053;-70
2023/06/12 06:31:25;;;;;;;123.18;116.95;;;;;;;28.29;28.38;101420.81;5014727;28;20034;-70
2023/06/12 06:33:50;;;;;;;119.82;113.80;;;;;;;28.29;28.50;101418.84;5013635;28;20076;-70
2023/06/12 06:36:16;;;;;;;119.20;113.45;;;;;;;28.30;28.64;101417.72;5013501;28;20073;-70
2023/06/12 06:38:41;;;;;;;119.10;113.60;;;;;;;28.32;28.75;101418.16;5013033;28;20364;-70
2023/06/12 06:41:07;;;;;;;120.53;114.68;;;;;;;28.31;29.05;101424.06;5014317;28;20034;-70
2023/06/12 06:43:32;;;;;;;120.78;115.00;;;;;;;28.31;28.80;101424.88;5014238;28;20060;-70
2023/06/12 06:45:57;;;;;;;118.20;112.78;;;;;;;28.31;28.75;101422.09;5013481;28;20099;-71
2023/06/12 06:48:23;;;;;;;121.18;115.30;;;;;;;28.33;29.21;101425.34;5012657;28;20501;-70
2023/06/12 06:50:48;;;;;;;121.75;115.72;;;;;;;28.34;28.94;101428.91;5014009;28;20038;-70
2023/06/12 06:53:14;;;;;;;121.03;115.13;;;;;;;28.33;29.03;101424.53;5014007;28;20383;-70
2023/06/12 06:55:42;;;;;;;121.25;115.35;;;;;;;28.35;28.68;101424.97;5013993;28;20030;-70
2023/06/12 06:58:07;;;;;;;124.45;118.10;;;;;;;28.37;28.78;101425.44;5013529;28;20038;-70
2023/06/12 07:00:33;;;;;;;118.13;112.70;;;;;;;28.39;28.79;101420.34;5012831;28;20034;-71
2023/06/12 07:02:58;;;;;;;121.95;115.75;;;;;;;28.40;28.98;101422.81;5013294;28;20100;-71
2023/06/12 07:05:25;;;;;;;123.40;116.90;;;;;;;28.42;29.00;101419.66;5013199;28;20498;-70
2023/06/12 07:07:51;;;;;;;123.93;117.53;;;;;;;28.45;28.60;101418.97;5013578;28;20088;-70
2023/06/12 07:10:17;;;;;;;122.65;116.70;;;;;;;28.47;29.16;101419.44;5013873;28;20066;-70
2023/06/12 07:12:42;;;;;;;124.38;118.03;;;;;;;28.51;28.76;101422.34;5013478;28;20058;-71
2023/06/12 07:15:08;;;;;;;124.65;118.80;;;;;;;28.52;28.91;101421.19;5013812;28;20234;-71
2023/06/12 07:17:34;;;;;;;124.25;118.25;;;;;;;28.53;28.68;101415.28;5010951;28;20046;-71
2023/06/12 07:19:59;;;;;;;126.65;120.45;;;;;;;28.55;28.68;101415.75;5012765;28;20113;-71
2023/06/12 07:22:27;;;;;;;124.07;118.25;;;;;;;28.57;29.17;101413.41;5013734;28;20541;-71
2023/06/12 07:24:53;;;;;;;124.63;118.15;;;;;;;28.60;29.00;101414.69;5013387;28;20040;-71
2023/06/12 07:27:18;;;;;;;122.40;116.40;;;;;;;28.63;29.13;101411.22;5011856;28;20037;-71
2023/06/12 07:29:44;;;;;;;123.70;117.95;;;;;;;28.65;29.22;101417.22;5012926;28;20112;-71
2023/06/12 07:32:10;;;;;;;124.00;118.13;;;;;;;28.68;29.48;101409.00;5012903;28;20030;-71
2023/06/12 07:34:35;;;;;;;126.38;120.70;;;;;;;28.71;29.20;101401.94;5013217;28;20066;-71
2023/06/12 07:37:02;;;;;;;126.97;120.30;;;;;;;28.75;28.96;101405.63;4995868;28;20065;-71
2023/06/12 07:39:27;;;;;;;128.35;121.70;;;;;;;28.79;28.95;101406.56;5028338;28;20054;-71
2023/06/12 07:41:53;;;;;;;126.72;120.63;;;;;;;28.83;28.67;101404.69;5013100;28;20494;-71
2023/06/12 07:44:18;;;;;;;126.40;120.65;;;;;;;28.86;28.70;101395.66;5028702;28;20117;-71
2023/06/12 07:46:44;;;;;;;127.75;121.72;;;;;;;28.91;28.94;101408.50;5011885;28;20079;-71
2023/06/12 07:49:10;;;;;;;127.28;120.97;;;;;;;28.95;28.75;101403.03;5013389;28;20477;-71
2023/06/12 07:51:36;;;;;;;126.78;121.00;;;;;;;28.99;28.48;101406.75;5012308;28;20037;-72
2023/06/12 07:54:02;;;;;;;127.88;121.63;;;;;;;29.02;28.90;101400.47;5012948;28;20470;-71
2023/06/12 07:56:28;;;;;;;128.77;122.97;;;;;;;29.07;28.78;101397.47;5012162;28;20060;-71
2023/06/12 07:58:53;;;;;;;131.88;125.80;;;;;;;29.11;28.70;101404.75;5011850;28;20087;-71
2023/06/12 08:01:22;;;;;;;128.90;122.93;;;;;;;29.16;28.72;101412.06;5013159;28;20160;-70
2023/06/12 08:03:47;;;;;;;131.80;125.60;;;;;;;29.21;28.67;101408.22;5012238;28;20034;-70
2023/06/12 08:06:15;;;;;;;130.95;124.75;;;;;;;29.26;28.66;101416.31;5012989;28;20030;-71
2023/06/12 08:08:44;;;;;;;129.03;123.03;;;;;;;29.30;28.33;101406.06;5013175;28;20470;-72
2023/06/12 08:11:10;;;;;;;128.63;122.47;;;;;;;29.36;28.51;101406.63;5013009;28;20293;-71
2023/06/12 08:13:36;;;;;;;131.02;125.07;;;;;;;29.40;28.44;101413.91;5012221;28;20105;-71
2023/06/12 08:16:02;;;;;;;131.00;124.80;;;;;;;29.47;28.71;101410.53;5012800;28;20148;-71
2023/06/12 08:18:28;;;;;;;133.45;126.90;;;;;;;29.52;28.73;101411.06;5012023;28;20037;-72
2023/06/12 08:20:53;;;;;;;135.43;129.25;;;;;;;29.59;28.74;101418.81;5013135;28;20033;-71
2023/06/12 08:23:19;;;;;;;135.32;129.05;;;;;;;29.65;28.17;101411.00;5012415;28;20415;-72
2023/06/12 08:25:44;;;;;;;137.50;131.20;;;;;;;29.71;28.28;101412.38;5011848;28;20514;-72
2023/06/12 08:28:10;;;;;;;135.90;129.80;;;;;;;29.77;28.84;101410.97;5012150;28;20437;-71
2023/06/12 08:30:36;;;;;;;132.00;125.50;;;;;;;29.84;28.36;101413.13;5011749;28;20099;-70
2023/06/12 08:33:03;;;;;;;132.48;126.57;;;;;;;29.89;28.52;101410.09;5011889;28;20034;-71
2023/06/12 08:35:28;;;;;;;135.18;128.98;;;;;;;29.96;28.45;101411.06;4993306;28;20027;-72
2023/06/12 08:37:54;;;;;;;138.18;131.88;;;;;;;30.04;28.49;101417.63;4992716;28;20046;-71
2023/06/12 08:40:20;;;;;;;136.18;129.98;;;;;;;30.11;28.27;101409.44;4993021;28;20407;-71
2023/06/12 08:42:50;;;;;;;136.85;130.25;;;;;;;30.18;28.42;101409.59;4998697;28;20026;-71
2023/06/12 08:45:17;;;;;;;134.95;128.95;;;;;;;30.25;28.99;101400.66;5011585;28;20037;-71
2023/06/12 08:47:48;;;;;;;140.25;134.00;;;;;;;30.32;28.17;101406.41;5010712;28;20041;-71
2023/06/12 08:50:17;;;;;;;140.60;134.13;;;;;;;30.42;27.90;101407.84;5011556;28;20528;-71
2023/06/12 08:52:42;;;;;;;144.00;137.40;;;;;;;30.49;28.46;101401.59;5011912;28;20065;-71
2023/06/12 08:55:09;;;;;;;139.20;132.80;;;;;;;30.55;28.07;101403.75;5012087;28;20064;-70
2023/06/12 08:57:38;;;;;;;146.93;140.05;;;;;;;30.62;27.95;101403.13;5012158;28;20029;-71
2023/06/12 09:00:11;;;;;;;140.27;133.68;;;;;;;30.70;28.35;101404.88;5009587;28;20053;-71
2023/06/12 09:02:42;;;;;;;142.95;136.55;;;;;;;30.78;28.35;101406.66;5026885;28;20060;-71
2023/06/12 09:05:14;;;;;;;145.07;138.68;;;;;;;30.87;28.27;101392.53;5011151;28;20057;-71
2023/06/12 09:07:43;;;;;;;149.48;142.43;;;;;;;30.96;28.09;101395.09;5011987;28;20355;-71
2023/06/12 09:10:09;;;;;;;147.93;141.45;;;;;;;31.04;28.12;101383.69;5011026;28;20038;-71
2023/06/12 09:12:34;;;;;;;147.23;140.65;;;;;;;31.13;28.00;101388.28;5011916;28;20461;-71
2023/06/12 09:15:01;;;;;;;150.02;142.68;;;;;;;31.22;27.86;101383.25;5011117;28;20063;-71
2023/06/12 09:17:30;;;;;;;150.48;143.43;;;;;;;31.30;27.92;101381.41;5011572;28;20061;-71
2023/06/12 09:19:56;;;;;;;150.20;143.50;;;;;;;31.38;27.34;101378.44;5011466;28;20026;-70
2023/06/12 09:22:21;;;;;;;147.27;140.85;;;;;;;31.46;27.15;101382.97;5010804;28;20038;-71
2023/06/12 09:24:47;;;;;;;151.13;144.55;;;;;;;31.55;27.25;101379.94;5011248;28;20103;-71
2023/06/12 09:27:13;;;;;;;155.50;148.70;;;;;;;31.62;27.45;101379.25;5011644;28;20084;-71
2023/06/12 09:29:39;;;;;;;152.18;145.45;;;;;;;31.71;27.20;101381.81;5011621;28;20034;-71
2023/06/12 09:32:07;;;;;;;151.73;145.27;;;;;;;31.79;27.62;101375.16;5025872;28;20068;-71
2023/06/12 09:34:34;;;;;;;157.50;150.40;;;;;;;31.87;27.90;101380.50;5011751;28;20431;-70
2023/06/12 09:37:03;;;;;;;160.75;153.73;;;;;;;31.97;27.48;101372.69;5011366;28;20034;-71
2023/06/12 09:39:29;;;;;;;159.15;152.25;;;;;;;32.04;28.42;101376.41;5010410;28;20065;-71
2023/06/12 09:41:56;;;;;;;160.30;153.45;;;;;;;32.12;27.94;101371.75;5015617;28;20037;-71
2023/06/12 09:44:28;;;;;;;163.88;156.70;;;;;;;32.22;27.38;101381.47;5033212;28;20034;-71
2023/06/12 09:46:58;;;;;;;159.07;151.98;;;;;;;32.30;26.11;101375.59;5017566;28;20053;-72
2023/06/12 09:49:23;;;;;;;159.07;152.20;;;;;;;32.41;26.15;101375.78;5033481;28;20083;-72
2023/06/12 09:51:50;;;;;;;160.75;153.82;;;;;;;32.50;26.30;101378.34;5017517;28;20120;-69
2023/06/12 09:54:18;;;;;;;163.63;156.60;;;;;;;32.58;25.86;101371.66;5017666;28;20049;-71
2023/06/12 09:56:45;;;;;;;;;;;;;;;32.68;27.81;101378.56;5018008;28;20033;-70
2023/06/12 09:59:18;;;;;;;161.43;153.82;;;;;;;32.75;26.95;101379.47;4998290;28;19979;-70
2023/06/12 10:01:57;;;;;;;157.55;150.70;;;;;;;32.84;26.29;101378.41;4998988;28;20475;-71
2023/06/12 10:04:32;;;;;;;158.30;151.50;;;;;;;32.93;26.20;101381.69;4998912;28;20171;-71
2023/06/12 10:07:05;;;;;;;162.18;155.02;;;;;;;33.03;26.12;101391.44;4998530;28;20033;-71
2023/06/12 10:09:31;;;;;;;162.70;155.55;;;;;;;33.12;25.77;101373.16;4998320;28;20035;-71
2023/06/12 10:11:58;;;;;;;167.27;160.23;;;;;;;33.20;26.19;101374.06;4998193;28;20038;-71
2023/06/12 10:14:26;;;;;;;163.30;156.40;;;;;;;33.30;24.74;101378.97;4998099;28;20056;-71
2023/06/12 10:16:54;;;;;;;165.93;158.52;;;;;;;33.39;24.66;101371.06;4998185;28;20138;-71
2023/06/12 10:19:24;;;;;;;165.98;157.48;;;;;;;33.48;24.24;101372.75;4998473;28;20034;-71
2023/06/12 10:21:52;;;;;;;165.43;158.38;;;;;;;33.57;23.64;101376.06;4997817;28;20030;-72
2023/06/12 10:24:18;;;;;;;167.05;160.00;;;;;;;33.65;23.83;101372.16;4998586;28;20065;-71
2023/06/12 10:26:44;;;;;;;168.82;161.63;;;;;;;33.75;24.69;101373.44;4998427;28;20038;-70
2023/06/12 10:29:36;;;;;;;173.98;166.35;;;;;;;33.85;24.43;101369.13;4997719;28;20443;-70
2023/06/12 10:32:10;;;;;;;169.43;162.02;;;;;;;33.95;24.02;101368.41;4998070;28;20529;-70
2023/06/12 10:34:40;;;;;;;170.77;163.38;;;;;;;34.03;24.26;101370.06;5000183;28;20065;-70
2023/06/12 10:37:28;;;;;;;174.70;167.02;;;;;;;34.13;24.27;101362.97;4997966;28;20092;-71
2023/06/12 10:40:10;;;;;;;174.77;167.20;;;;;;;34.23;23.74;101365.03;4996685;28;20076;-71
2023/06/12 10:42:52;;;;;;;176.38;168.48;;;;;;;34.33;24.27;101367.09;4998338;28;20177;-71
2023/06/12 10:45:22;;;;;;;174.32;166.80;;;;;;;34.42;23.95;101363.94;4998290;28;20030;-70
2023/06/12 10:48:06;;;;;;;174.52;167.23;;;;;;;34.50;23.83;101356.34;4998378;28;20033;-72
2023/06/12 10:50:54;;;;;;;182.73;175.15;;;;;;;34.59;23.20;101357.63;4998327;28;20467;-70
2023/06/12 10:53:22;;;;;;;180.15;172.45;;;;;;;34.68;23.97;101355.28;5002026;28;20516;-71
2023/06/12 10:55:47;;;;;;;178.02;170.65;;;;;;;34.77;24.28;101360.53;5013825;28;20026;-71